createdAt,value
2023-03-30T00:01:46.002Z,1.90
2023-03-30T00:04:16.180Z,1.48
2023-03-30T00:06:44.923Z,2.00
2023-03-30T00:09:14.543Z,1.67
2023-03-30T00:11:43.265Z,1.95
2023-03-30T00:14:12.373Z,1.70
2023-03-30T00:16:41.313Z,1.90
2023-03-30T00:19:09.898Z,1.58
2023-03-30T00:21:39.780Z,1.98
2023-03-30T00:24:08.371Z,1.60
2023-03-30T00:26:36.967Z,2.95
2023-03-30T00:29:06.272Z,1.60
2023-03-30T00:31:34.868Z,1.90
2023-03-30T00:34:03.526Z,1.67
2023-03-30T00:36:36.996Z,1.80
2023-03-30T00:39:08.386Z,1.90
2023-03-30T00:41:37.798Z,1.48
2023-03-30T00:44:08.368Z,1.80
2023-03-30T00:46:37.167Z,1.60
2023-03-30T00:49:09.610Z,1.60
2023-03-30T00:51:42.659Z,1.80
2023-03-30T00:54:16.117Z,1.70
2023-03-30T00:56:44.920Z,1.90
2023-03-30T00:59:13.973Z,1.90
2023-03-30T01:01:43.138Z,2.33
2023-03-30T01:04:14.021Z,1.50
2023-03-30T01:06:46.413Z,1.83
2023-03-30T01:09:17.557Z,1.80
2023-03-30T01:11:46.705Z,2.10
2023-03-30T01:14:17.213Z,1.85
2023-03-30T01:16:54.504Z,2.10
2023-03-30T01:20:12.680Z,2.00
2023-03-30T01:23:14.013Z,1.90
2023-03-30T01:26:23.314Z,1.70
2023-03-30T01:28:57.967Z,1.75
2023-03-30T01:31:56.784Z,1.65
2023-03-30T01:35:04.813Z,1.77
2023-03-30T01:38:30.768Z,1.60
2023-03-30T01:41:09.849Z,1.77
2023-03-30T01:43:47.152Z,1.73
2023-03-30T01:46:25.017Z,1.88
2023-03-30T01:49:02.643Z,1.77
2023-03-30T01:51:36.531Z,2.38
2023-03-30T01:54:09.844Z,2.10
2023-03-30T01:56:47.463Z,2.03
2023-03-30T01:59:21.611Z,1.77
2023-03-30T02:01:54.218Z,1.83
2023-03-30T02:04:24.743Z,2.00
2023-03-30T02:06:57.896Z,2.35
2023-03-30T02:09:28.383Z,1.83
2023-03-30T02:11:59.428Z,2.55
2023-03-30T02:14:32.580Z,2.60
2023-03-30T02:17:04.572Z,2.40
2023-03-30T02:19:33.960Z,2.00
2023-03-30T02:22:02.551Z,2.45
2023-03-30T02:24:33.868Z,2.08
2023-03-30T02:27:04.692Z,2.50
2023-03-30T02:29:35.765Z,1.90
2023-03-30T02:32:04.703Z,2.20
2023-03-30T02:34:52.025Z,2.17
2023-03-30T02:37:38.443Z,2.60
2023-03-30T02:40:20.566Z,1.95
2023-03-30T02:43:16.016Z,2.30
2023-03-30T02:45:51.513Z,2.30
2023-03-30T02:48:30.814Z,2.20
2023-03-30T02:51:10.957Z,2.13
2023-03-30T02:54:16.902Z,2.20
2023-03-30T02:57:16.225Z,3.08
2023-03-30T02:59:51.854Z,2.75
2023-03-30T03:02:24.473Z,2.78
2023-03-30T03:05:04.235Z,2.33
2023-03-30T03:07:53.725Z,2.72
2023-03-30T03:10:22.318Z,2.30
2023-03-30T03:12:51.400Z,2.95
2023-03-30T03:15:21.466Z,2.42
2023-03-30T03:18:07.286Z,1.95
2023-03-30T03:20:35.922Z,2.35
2023-03-30T03:23:05.472Z,2.13
2023-03-30T03:25:41.790Z,2.50
2023-03-30T03:28:11.647Z,3.17
2023-03-30T03:30:49.859Z,2.72
2023-03-30T03:33:21.193Z,2.60
2023-03-30T03:36:01.083Z,2.63
2023-03-30T03:38:32.182Z,2.30
2023-03-30T03:41:02.121Z,2.67
2023-03-30T03:43:32.181Z,2.90
2023-03-30T03:46:02.189Z,2.90
2023-03-30T03:48:30.961Z,2.55
2023-03-30T03:51:00.126Z,2.50
2023-03-30T03:53:32.997Z,3.00
2023-03-30T03:56:06.126Z,2.50
2023-03-30T03:58:35.499Z,2.47
2023-03-30T04:01:05.707Z,2.70
2023-03-30T04:03:34.559Z,2.65
2023-03-30T04:06:03.597Z,3.20
2023-03-30T04:08:33.464Z,2.75
2023-03-30T04:11:12.075Z,3.03
2023-03-30T04:14:19.216Z,2.90
2023-03-30T04:17:07.729Z,2.70
2023-03-30T04:19:36.262Z,2.38
2023-03-30T04:22:24.199Z,2.72
2023-03-30T04:25:15.066Z,2.75
2023-03-30T04:28:15.957Z,2.60
2023-03-30T04:31:02.525Z,2.80
2023-03-30T04:33:53.201Z,2.72
2023-03-30T04:36:38.327Z,2.40
2023-03-30T04:39:30.266Z,3.40
2023-03-30T04:42:30.292Z,3.10
2023-03-30T04:45:37.142Z,3.25
2023-03-30T04:48:35.887Z,2.72
2023-03-30T04:51:24.391Z,3.15
2023-03-30T04:54:20.149Z,2.92
2023-03-30T04:57:15.247Z,3.10
2023-03-30T04:59:52.945Z,2.60
2023-03-30T05:02:43.323Z,2.75
2023-03-30T05:05:23.652Z,3.35
2023-03-30T05:08:11.959Z,3.47
2023-03-30T05:11:05.187Z,2.83
2023-03-30T05:13:52.370Z,2.65
2023-03-30T05:16:50.202Z,2.55
2023-03-30T05:19:35.397Z,3.03
2023-03-30T05:22:21.139Z,3.20
2023-03-30T05:25:02.267Z,2.63
2023-03-30T05:27:44.181Z,2.85
2023-03-30T05:30:20.694Z,2.80
2023-03-30T05:32:49.480Z,2.67
2023-03-30T05:35:23.766Z,2.70
2023-03-30T05:38:10.869Z,3.10
2023-03-30T05:40:44.901Z,2.78
2023-03-30T05:43:36.497Z,2.85
2023-03-30T05:46:32.599Z,2.33
2023-03-30T05:49:23.760Z,2.63
2023-03-30T05:52:04.802Z,2.75
2023-03-30T05:54:51.769Z,2.53
2023-03-30T05:57:35.306Z,3.08
2023-03-30T06:00:34.573Z,2.60
2023-03-30T06:03:11.739Z,2.83
2023-03-30T06:05:41.914Z,3.08
2023-03-30T06:08:13.620Z,2.75
2023-03-30T06:10:43.649Z,2.78
2023-03-30T06:13:15.477Z,2.92
2023-03-30T06:15:51.401Z,3.00
2023-03-30T06:18:22.864Z,2.60
2023-03-30T06:21:06.977Z,2.40
2023-03-30T06:23:47.280Z,2.80
2023-03-30T06:26:20.103Z,3.00
2023-03-30T06:28:51.804Z,2.65
2023-03-30T06:31:22.821Z,2.80
2023-03-30T06:33:58.600Z,3.08
2023-03-30T06:36:44.768Z,2.97
2023-03-30T06:39:15.588Z,2.80
2023-03-30T06:41:44.315Z,2.58
2023-03-30T06:44:30.783Z,2.85
2023-03-30T06:47:03.390Z,2.50
2023-03-30T06:49:32.153Z,2.70
2023-03-30T06:52:19.390Z,2.22
2023-03-30T06:54:48.114Z,2.65
2023-03-30T06:57:16.876Z,2.38
2023-03-30T06:59:47.030Z,2.53
2023-03-30T07:02:21.881Z,2.40
2023-03-30T07:05:09.249Z,2.35
2023-03-30T07:07:47.690Z,2.67
2023-03-30T07:10:16.461Z,2.55
2023-03-30T07:12:46.401Z,2.75
2023-03-30T07:15:17.114Z,2.38
2023-03-30T07:17:46.157Z,3.05
2023-03-30T07:20:16.034Z,2.30
2023-03-30T07:23:04.926Z,2.45
2023-03-30T07:25:33.506Z,2.50
2023-03-30T07:28:08.601Z,2.75
2023-03-30T07:30:39.040Z,3.00
2023-03-30T07:33:09.307Z,3.53
2023-03-30T07:35:43.318Z,2.95
2023-03-30T07:38:12.268Z,2.88
2023-03-30T07:40:46.806Z,2.83
2023-03-30T07:43:17.136Z,2.60
2023-03-30T07:45:47.822Z,2.55
2023-03-30T07:48:23.741Z,2.88
2023-03-30T07:50:59.818Z,2.13
2023-03-30T07:53:30.675Z,2.22
2023-03-30T07:56:00.652Z,1.92
2023-03-30T07:58:37.627Z,2.13
2023-03-30T08:01:08.307Z,2.45
2023-03-30T08:03:55.207Z,1.60
2023-03-30T08:06:25.183Z,1.90
2023-03-30T08:08:58.224Z,1.70
2023-03-30T08:11:26.816Z,1.60
2023-03-30T08:13:55.428Z,1.63
2023-03-30T08:16:25.451Z,1.55
2023-03-30T08:18:54.996Z,1.52
2023-03-30T08:21:25.663Z,1.10
2023-03-30T08:23:56.070Z,1.40
2023-03-30T08:26:24.907Z,1.55
2023-03-30T08:28:53.725Z,1.40
2023-03-30T08:31:22.342Z,1.10
2023-03-30T08:33:52.241Z,1.10
2023-03-30T08:36:21.351Z,1.10
2023-03-30T08:38:49.945Z,1.17
2023-03-30T08:41:45.514Z,1.20
2023-03-30T08:44:29.171Z,2.15
2023-03-30T08:46:58.310Z,1.20
2023-03-30T08:49:29.273Z,1.20
2023-03-30T08:52:06.285Z,1.08
2023-03-30T08:54:36.132Z,1.00
2023-03-30T08:57:13.165Z,1.33
2023-03-30T08:59:48.515Z,1.33
2023-03-30T09:02:20.163Z,1.33
2023-03-30T09:05:04.732Z,1.48
2023-03-30T09:07:40.599Z,1.05
2023-03-30T09:10:13.522Z,1.23
2023-03-30T09:12:44.157Z,1.30
2023-03-30T09:15:17.099Z,1.17
2023-03-30T09:17:49.870Z,1.15
2023-03-30T09:20:25.135Z,1.90
2023-03-30T09:22:55.658Z,1.20
2023-03-30T09:25:31.098Z,1.30
2023-03-30T09:28:07.477Z,1.08
2023-03-30T09:30:40.889Z,1.00
2023-03-30T09:33:21.877Z,1.20
2023-03-30T09:36:05.097Z,1.27
2023-03-30T09:38:33.811Z,1.67
2023-03-30T09:41:10.806Z,1.02
2023-03-30T09:43:44.169Z,1.20
2023-03-30T09:46:13.370Z,1.10
2023-03-30T09:48:43.626Z,1.00
2023-03-30T09:51:22.776Z,1.33
2023-03-30T09:53:53.812Z,1.60
2023-03-30T09:56:28.287Z,1.50
2023-03-30T09:58:57.286Z,1.20
2023-03-30T10:01:38.652Z,1.45
2023-03-30T10:04:10.419Z,0.50
2023-03-30T10:06:47.665Z,0.50
2023-03-30T10:09:21.925Z,0.55
2023-03-30T10:11:52.309Z,0.90
2023-03-30T10:14:29.362Z,0.68
2023-03-30T10:16:59.386Z,0.80
2023-03-30T10:19:28.403Z,0.63
2023-03-30T10:22:00.162Z,0.50
2023-03-30T10:24:31.601Z,0.60
2023-03-30T10:27:06.116Z,0.80
2023-03-30T10:29:34.746Z,0.60
2023-03-30T10:32:11.074Z,0.80
2023-03-30T10:34:42.133Z,0.52
2023-03-30T10:37:14.826Z,0.60
2023-03-30T10:39:45.414Z,0.50
2023-03-30T10:42:17.720Z,0.57
2023-03-30T10:44:49.084Z,0.60
2023-03-30T10:47:38.687Z,0.43
2023-03-30T10:50:16.437Z,0.95
2023-03-30T10:52:59.324Z,0.70
2023-03-30T10:55:35.614Z,0.60
2023-03-30T10:58:14.063Z,1.90
2023-03-30T11:00:57.280Z,1.20
2023-03-30T11:03:29.270Z,0.65
2023-03-30T11:06:03.449Z,0.60
2023-03-30T11:08:38.194Z,0.32
2023-03-30T11:11:08.134Z,0.70
2023-03-30T11:13:40.799Z,0.77
2023-03-30T11:16:15.180Z,0.50
2023-03-30T11:18:49.528Z,0.82
2023-03-30T11:21:22.368Z,0.73
2023-03-30T11:23:54.964Z,0.77
2023-03-30T11:26:28.523Z,0.65
2023-03-30T11:29:07.028Z,0.55
2023-03-30T11:31:45.966Z,0.50
2023-03-30T11:34:22.570Z,0.60
2023-03-30T11:36:58.826Z,0.57
2023-03-30T11:39:32.881Z,0.60
2023-03-30T11:42:17.221Z,0.60
2023-03-30T11:44:45.953Z,0.70
2023-03-30T11:47:33.408Z,0.70
2023-03-30T11:50:13.705Z,0.60
2023-03-30T11:52:51.369Z,0.60
2023-03-30T11:55:28.049Z,0.80
2023-03-30T11:58:08.009Z,0.40
2023-03-30T12:00:50.046Z,0.52
2023-03-30T12:03:44.084Z,0.80
2023-03-30T12:06:31.030Z,0.40
2023-03-30T12:09:13.157Z,0.38
2023-03-30T12:11:55.711Z,0.50
2023-03-30T12:15:00.208Z,0.35
2023-03-30T12:17:42.340Z,0.30
2023-03-30T12:20:34.242Z,0.40
2023-03-30T12:23:15.186Z,0.57
2023-03-30T12:26:03.710Z,0.43
2023-03-30T12:29:05.065Z,0.90
2023-03-30T12:32:03.943Z,0.88
2023-03-30T12:34:35.660Z,0.50
2023-03-30T12:37:10.097Z,1.08
2023-03-30T12:39:49.048Z,0.73
2023-03-30T12:42:27.880Z,0.80
2023-03-30T12:45:22.065Z,0.63
2023-03-30T12:48:33.027Z,0.60
2023-03-30T12:51:17.160Z,0.80
2023-03-30T12:54:04.107Z,0.75
2023-03-30T12:56:38.724Z,0.80
2023-03-30T12:59:25.481Z,0.68
2023-03-30T13:02:08.002Z,0.90
2023-03-30T13:04:39.554Z,0.57
2023-03-30T13:07:15.160Z,0.75
2023-03-30T13:09:56.323Z,0.80
2023-03-30T13:12:49.268Z,0.73
2023-03-30T13:15:34.188Z,0.88
2023-03-30T13:18:06.290Z,0.57
2023-03-30T13:20:37.440Z,1.00
2023-03-30T13:23:33.010Z,0.80
2023-03-30T13:26:07.833Z,0.80
2023-03-30T13:28:48.853Z,1.00
2023-03-30T13:31:33.682Z,0.90
2023-03-30T13:34:14.674Z,1.00
2023-03-30T13:36:54.148Z,1.25
2023-03-30T13:39:27.915Z,1.10
2023-03-30T13:42:13.139Z,1.40
2023-03-30T13:44:56.126Z,1.23
2023-03-30T13:47:38.942Z,1.20
2023-03-30T13:50:18.152Z,1.25
2023-03-30T13:52:49.033Z,1.10
2023-03-30T13:55:21.706Z,1.13
2023-03-30T13:57:50.439Z,1.02
2023-03-30T14:00:33.133Z,1.88
2023-03-30T14:03:16.520Z,1.08
2023-03-30T14:05:47.292Z,1.70
2023-03-30T14:08:17.386Z,1.65
2023-03-30T14:10:48.317Z,1.23
2023-03-30T14:13:18.009Z,1.65
2023-03-30T14:15:47.532Z,1.75
2023-03-30T14:18:24.850Z,1.13
2023-03-30T14:20:58.168Z,0.95
2023-03-30T14:23:34.501Z,1.25
2023-03-30T14:26:12.952Z,1.00
2023-03-30T14:28:42.515Z,1.30
2023-03-30T14:31:14.512Z,1.50
2023-03-30T14:33:43.245Z,1.20
2023-03-30T14:36:16.257Z,1.60
2023-03-30T14:38:47.922Z,1.08
2023-03-30T14:41:22.688Z,1.35
2023-03-30T14:43:56.271Z,1.15
2023-03-30T14:46:26.657Z,1.20
2023-03-30T14:48:56.138Z,1.42
2023-03-30T14:51:28.968Z,1.40
2023-03-30T14:53:57.743Z,1.27
2023-03-30T14:56:28.092Z,1.67
2023-03-30T14:58:57.190Z,1.35
2023-03-30T15:01:31.425Z,1.83
2023-03-30T15:04:04.177Z,1.23
2023-03-30T15:06:34.210Z,1.50
2023-03-30T15:09:04.183Z,1.20
2023-03-30T15:11:35.734Z,1.60
2023-03-30T15:14:09.733Z,1.17
2023-03-30T15:16:39.719Z,1.17
2023-03-30T15:19:13.375Z,1.60
2023-03-30T15:21:43.575Z,1.30
2023-03-30T15:24:18.102Z,0.70
2023-03-30T15:26:49.860Z,0.70
2023-03-30T15:29:21.032Z,0.95
2023-03-30T15:32:00.698Z,1.13
2023-03-30T15:34:29.390Z,1.08
2023-03-30T15:36:59.226Z,1.05
2023-03-30T15:39:33.966Z,1.02
2023-03-30T15:42:05.399Z,0.95
2023-03-30T15:44:37.179Z,1.20
2023-03-30T15:47:10.962Z,1.08
2023-03-30T15:49:42.764Z,1.23
2023-03-30T15:52:17.799Z,1.38
2023-03-30T15:54:52.739Z,0.82
2023-03-30T15:57:24.982Z,1.13
2023-03-30T15:59:56.458Z,0.85
2023-03-30T16:02:37.580Z,0.88
2023-03-30T16:05:08.472Z,1.38
2023-03-30T16:07:41.903Z,0.88
2023-03-30T16:10:14.876Z,0.80
2023-03-30T16:12:46.186Z,0.90
2023-03-30T16:15:16.437Z,0.80
2023-03-30T16:17:45.525Z,0.90
2023-03-30T16:20:17.197Z,1.13
2023-03-30T16:22:47.774Z,1.30
2023-03-30T16:25:17.193Z,1.38
2023-03-30T16:27:46.747Z,1.10
2023-03-30T16:30:20.040Z,1.40
2023-03-30T16:32:48.870Z,1.00
2023-03-30T16:35:17.749Z,1.02
2023-03-30T16:37:48.143Z,2.28
2023-03-30T16:40:28.294Z,1.23
2023-03-30T16:42:56.943Z,1.30
2023-03-30T16:45:26.273Z,1.10
2023-03-30T16:47:55.467Z,1.30
2023-03-30T16:50:26.097Z,1.52
2023-03-30T16:52:56.055Z,1.33
2023-03-30T16:55:24.592Z,0.60
2023-03-30T16:57:53.241Z,0.90
2023-03-30T17:00:25.338Z,0.70
2023-03-30T17:02:54.037Z,0.70
2023-03-30T17:05:22.691Z,0.88
2023-03-30T17:07:56.100Z,0.80
2023-03-30T17:10:27.240Z,0.85
2023-03-30T17:12:56.702Z,1.20
2023-03-30T17:15:26.557Z,0.70
2023-03-30T17:17:55.774Z,0.85
2023-03-30T17:20:29.826Z,0.82
2023-03-30T17:22:59.891Z,0.77
2023-03-30T17:25:28.617Z,0.70
2023-03-30T17:27:58.418Z,0.93
2023-03-30T17:30:29.385Z,1.10
2023-03-30T17:32:58.283Z,1.13
2023-03-30T17:35:27.958Z,1.05
2023-03-30T17:37:56.871Z,0.90
2023-03-30T17:40:28.379Z,1.02
2023-03-30T17:42:57.436Z,0.70
2023-03-30T17:45:29.295Z,1.05
2023-03-30T17:47:58.608Z,1.02
2023-03-30T17:50:29.055Z,1.00
2023-03-30T17:52:58.630Z,0.80
2023-03-30T17:55:30.052Z,0.80
2023-03-30T17:57:59.712Z,1.00
2023-03-30T18:00:29.714Z,0.90
2023-03-30T18:02:59.209Z,0.80
2023-03-30T18:05:30.611Z,0.80
2023-03-30T18:07:59.407Z,1.00
2023-03-30T18:10:35.628Z,1.00
2023-03-30T18:13:04.606Z,0.70
2023-03-30T18:15:34.598Z,0.63
2023-03-30T18:18:03.903Z,0.90
2023-03-30T18:20:41.800Z,1.00
2023-03-30T18:23:10.700Z,0.82
2023-03-30T18:25:40.799Z,0.70
2023-03-30T18:28:15.653Z,0.77
2023-03-30T18:30:44.696Z,1.05
2023-03-30T18:33:13.365Z,0.90
2023-03-30T18:35:44.269Z,0.80
2023-03-30T18:38:13.518Z,0.77
2023-03-30T18:40:45.750Z,1.17
2023-03-30T18:43:14.601Z,0.70
2023-03-30T18:45:45.655Z,0.70
2023-03-30T18:48:16.397Z,0.73
2023-03-30T18:50:46.912Z,0.82
2023-03-30T18:53:17.149Z,0.80
2023-03-30T18:55:49.438Z,0.82
2023-03-30T18:58:20.768Z,1.00
2023-03-30T19:00:50.622Z,1.20
2023-03-30T19:03:19.852Z,1.02
2023-03-30T19:05:49.273Z,1.10
2023-03-30T19:08:19.789Z,1.08
2023-03-30T19:10:51.422Z,1.08
2023-03-30T19:13:22.240Z,1.13
2023-03-30T19:15:52.102Z,1.02
2023-03-30T19:18:22.362Z,0.90
2023-03-30T19:20:51.805Z,1.10
2023-03-30T19:23:21.538Z,1.00
2023-03-30T19:25:51.521Z,1.17
2023-03-30T19:28:20.475Z,1.27
2023-03-30T19:30:49.470Z,1.02
2023-03-30T19:33:20.806Z,1.20
2023-03-30T19:35:49.659Z,1.20
2023-03-30T19:38:18.247Z,1.23
2023-03-30T19:40:46.994Z,1.15
2023-03-30T19:43:17.058Z,1.05
2023-03-30T19:45:51.189Z,1.02
2023-03-30T19:48:19.846Z,1.08
2023-03-30T19:50:48.907Z,1.10
2023-03-30T19:53:17.573Z,1.38
2023-03-30T19:55:46.818Z,1.48
2023-03-30T19:58:16.760Z,1.33
2023-03-30T20:00:49.381Z,1.27
2023-03-30T20:03:17.986Z,1.20
2023-03-30T20:05:51.153Z,1.30
2023-03-30T20:08:24.406Z,1.10
2023-03-30T20:10:54.292Z,1.58
2023-03-30T20:13:24.493Z,1.08
2023-03-30T20:15:55.797Z,1.10
2023-03-30T20:18:24.821Z,1.52
2023-03-30T20:20:53.594Z,1.23
2023-03-30T20:23:22.184Z,1.55
2023-03-30T20:25:56.661Z,1.20
2023-03-30T20:28:27.232Z,1.10
2023-03-30T20:30:57.035Z,1.35
2023-03-30T20:33:25.935Z,1.17
2023-03-30T20:35:56.598Z,1.63
2023-03-30T20:38:25.253Z,1.40
2023-03-30T20:40:57.734Z,1.45
2023-03-30T20:43:27.682Z,1.42
2023-03-30T20:46:02.269Z,1.40
2023-03-30T20:48:33.687Z,1.10
2023-03-30T20:51:03.669Z,1.08
2023-03-30T20:53:33.823Z,1.10
2023-03-30T20:56:03.073Z,1.25
2023-03-30T20:58:33.416Z,1.20
2023-03-30T21:01:10.862Z,1.20
2023-03-30T21:03:41.155Z,1.00
2023-03-30T21:06:09.736Z,1.30
2023-03-30T21:08:38.319Z,1.30
2023-03-30T21:11:08.106Z,0.98
2023-03-30T21:13:38.327Z,1.00
2023-03-30T21:16:08.402Z,1.10
2023-03-30T21:18:38.657Z,1.08
2023-03-30T21:21:07.336Z,1.23
2023-03-30T21:23:37.267Z,0.98
2023-03-30T21:26:08.099Z,0.90
2023-03-30T21:28:39.083Z,1.25
2023-03-30T21:31:09.306Z,1.20
2023-03-30T21:33:38.644Z,1.17
2023-03-30T21:36:08.190Z,1.50
2023-03-30T21:38:37.083Z,1.27
2023-03-30T21:41:07.497Z,1.15
2023-03-30T21:43:40.050Z,0.98
2023-03-30T21:46:11.105Z,1.20
2023-03-30T21:48:41.447Z,1.30
2023-03-30T21:51:13.926Z,1.40
2023-03-30T21:53:43.943Z,1.25
2023-03-30T21:56:13.379Z,1.10
2023-03-30T21:58:43.618Z,1.10
2023-03-30T22:01:13.161Z,1.17
2023-03-30T22:03:42.981Z,1.48
2023-03-30T22:06:13.814Z,0.90
2023-03-30T22:08:42.843Z,0.80
2023-03-30T22:11:14.121Z,1.40
2023-03-30T22:13:45.824Z,1.17
2023-03-30T22:16:18.626Z,1.33
2023-03-30T22:18:47.598Z,0.98
2023-03-30T22:21:18.916Z,0.93
2023-03-30T22:23:47.982Z,0.95
2023-03-30T22:26:16.806Z,1.10
2023-03-30T22:28:46.932Z,1.23
2023-03-30T22:31:17.027Z,1.35
2023-03-30T22:33:46.241Z,1.23
2023-03-30T22:36:19.728Z,1.00
2023-03-30T22:38:48.867Z,1.00
2023-03-30T22:41:18.742Z,1.05
2023-03-30T22:43:48.827Z,1.20
2023-03-30T22:46:17.954Z,1.00
2023-03-30T22:48:49.042Z,1.17
2023-03-30T22:51:23.389Z,1.10
2023-03-30T22:53:52.099Z,0.95
2023-03-30T22:56:20.755Z,1.08
2023-03-30T22:58:50.613Z,1.27
2023-03-30T23:01:19.476Z,1.23
2023-03-30T23:03:48.737Z,1.10
2023-03-30T23:06:19.021Z,0.80
2023-03-30T23:08:48.611Z,0.95
2023-03-30T23:11:21.434Z,0.93
2023-03-30T23:13:52.199Z,1.00
2023-03-30T23:16:20.810Z,0.88
2023-03-30T23:18:49.918Z,1.00
2023-03-30T23:21:18.457Z,1.00
2023-03-30T23:23:47.000Z,0.60
2023-03-30T23:26:15.569Z,0.80
2023-03-30T23:28:45.207Z,1.17
2023-03-30T23:31:17.516Z,0.90
2023-03-30T23:33:46.773Z,1.23
2023-03-30T23:36:17.166Z,0.85
2023-03-30T23:38:46.748Z,1.00
2023-03-30T23:41:16.819Z,1.20
2023-03-30T23:43:45.854Z,0.85
2023-03-30T23:46:16.624Z,0.88
2023-03-30T23:48:45.525Z,0.80
2023-03-30T23:51:14.144Z,0.80
2023-03-30T23:53:42.723Z,0.77
2023-03-30T23:56:13.766Z,0.85
2023-03-30T23:58:42.661Z,1.20
